createdAt,value
2018-06-05T00:00:54.436Z,73.80
2018-06-05T00:06:20.131Z,75.20
2018-06-05T00:08:50.850Z,78.30
2018-06-05T00:11:21.620Z,80.30
2018-06-05T00:13:52.330Z,80.80
2018-06-05T00:16:23.074Z,80.40
2018-06-05T00:18:53.894Z,80.70
2018-06-05T00:21:24.637Z,80.30
2018-06-05T00:23:55.435Z,80.50
2018-06-05T00:26:26.202Z,80.30
2018-06-05T00:29:15.408Z,80.70
2018-06-05T00:31:46.139Z,82.70
2018-06-05T00:34:16.770Z,83.30
2018-06-05T00:36:47.425Z,84.10
2018-06-05T00:39:18.108Z,84.80
2018-06-05T00:41:48.747Z,85.10
2018-06-05T00:44:25.323Z,85.30
2018-06-05T00:46:55.999Z,86.80
2018-06-05T00:49:26.800Z,88.70
2018-06-05T00:52:09.500Z,89.60
2018-06-05T00:54:40.244Z,91.30
2018-06-05T00:57:11.074Z,92.30
2018-06-05T00:59:41.772Z,93.40
2018-06-05T01:02:12.579Z,95.10
2018-06-05T01:04:43.334Z,96.20
2018-06-05T01:07:14.193Z,96.80
2018-06-05T01:09:45.059Z,97.80
2018-06-05T01:12:15.786Z,98.80
2018-06-05T01:18:00.103Z,99.90
2018-06-05T01:20:30.779Z,99.60
2018-06-05T01:23:01.523Z,99.30
2018-06-05T01:25:32.396Z,99.80
2018-06-05T01:28:03.184Z,99.90
2018-06-05T01:30:34.005Z,99.90
2018-06-05T01:33:04.680Z,99.90
2018-06-05T01:35:53.334Z,99.90
2018-06-05T01:38:24.192Z,99.90
2018-06-05T01:40:54.998Z,99.90
2018-06-05T01:43:25.756Z,99.90
2018-06-05T01:45:56.555Z,99.90
2018-06-05T01:48:27.335Z,99.90
2018-06-05T01:50:58.084Z,99.90
2018-06-05T01:53:28.859Z,99.90
2018-06-05T01:55:59.083Z,99.90
2018-06-05T01:58:29.191Z,99.90
2018-06-05T02:00:59.500Z,99.90
2018-06-05T02:03:30.275Z,99.90
2018-06-05T02:06:01.011Z,99.90
2018-06-05T02:08:32.159Z,99.90
2018-06-05T02:11:02.863Z,99.90
2018-06-05T02:13:33.712Z,99.90
2018-06-05T02:16:04.443Z,99.90
2018-06-05T02:18:35.257Z,99.90
2018-06-05T02:21:06.038Z,99.90
2018-06-05T02:23:36.779Z,99.90
2018-06-05T02:26:07.584Z,99.90
2018-06-05T02:28:38.332Z,99.90
2018-06-05T02:31:09.427Z,99.90
2018-06-05T02:34:04.100Z,99.90
2018-06-05T02:36:34.771Z,99.90
2018-06-05T02:39:07.636Z,99.90
2018-06-05T02:41:38.492Z,99.90
2018-06-05T02:44:09.207Z,99.90
2018-06-05T02:46:40.313Z,99.90
2018-06-05T02:49:11.104Z,99.90
2018-06-05T02:51:42.033Z,99.90
2018-06-05T02:54:12.697Z,99.90
2018-06-05T02:56:43.543Z,99.90
2018-06-05T02:59:14.339Z,99.90
2018-06-05T03:01:45.189Z,99.90
2018-06-05T03:04:15.871Z,99.90
2018-06-05T03:06:46.979Z,99.90
2018-06-05T03:09:17.727Z,99.90
2018-06-05T03:11:48.579Z,99.90
2018-06-05T03:14:19.399Z,99.90
2018-06-05T03:16:50.222Z,99.90
2018-06-05T03:19:21.013Z,99.90
2018-06-05T03:21:51.724Z,99.90
2018-06-05T03:24:34.996Z,99.90
2018-06-05T03:27:05.963Z,99.90
2018-06-05T03:29:37.019Z,99.90
2018-06-05T03:32:07.799Z,99.90
2018-06-05T03:34:44.308Z,99.90
2018-06-05T03:37:15.065Z,99.90
2018-06-05T03:39:57.143Z,99.90
2018-06-05T03:42:27.970Z,99.90
2018-06-05T03:44:58.687Z,99.90
2018-06-05T03:47:29.399Z,99.90
2018-06-05T03:53:24.702Z,99.90
2018-06-05T03:55:55.460Z,99.90
2018-06-05T03:58:26.130Z,99.90
2018-06-05T04:00:57.453Z,99.90
2018-06-05T04:03:28.807Z,99.90
2018-06-05T04:05:59.683Z,99.90
2018-06-05T04:08:32.666Z,99.90
2018-06-05T04:11:03.475Z,99.90
2018-06-05T04:13:34.599Z,99.90
2018-06-05T04:16:05.297Z,99.90
2018-06-05T04:27:38.534Z,99.90
2018-06-05T04:30:10.857Z,99.90
2018-06-05T04:32:41.828Z,99.70
2018-06-05T04:35:12.808Z,99.50
2018-06-05T04:37:43.489Z,98.50
2018-06-05T04:40:14.242Z,97.80
2018-06-05T04:42:45.487Z,96.50
2018-06-05T04:45:16.446Z,95.40
2018-06-05T04:47:47.168Z,93.40
2018-06-05T04:50:18.896Z,92.00
2018-06-05T04:52:49.643Z,90.70
2018-06-05T04:55:20.673Z,90.60
2018-06-05T04:58:00.893Z,90.00
2018-06-05T05:00:31.767Z,88.90
2018-06-05T05:03:03.106Z,87.10
2018-06-05T05:05:34.688Z,84.90
2018-06-05T05:08:06.004Z,81.00
2018-06-05T05:10:37.425Z,78.30
2018-06-05T05:13:13.280Z,76.70
2018-06-05T05:15:57.980Z,75.00
2018-06-05T05:18:29.178Z,73.10
2018-06-05T05:21:00.126Z,71.10
2018-06-05T05:23:30.957Z,69.30
2018-06-05T05:26:01.632Z,68.60
2018-06-05T05:28:32.427Z,68.40
2018-06-05T05:31:03.217Z,67.30
2018-06-05T05:33:36.014Z,66.10
2018-06-05T05:36:06.832Z,64.80
2018-06-05T05:38:37.597Z,64.70
2018-06-05T05:41:09.449Z,64.70
2018-06-05T05:43:51.357Z,64.40
2018-06-05T05:46:22.166Z,64.60
2018-06-05T05:48:52.786Z,64.20
2018-06-05T05:51:34.200Z,65.50
2018-06-05T05:54:05.022Z,66.00
2018-06-05T05:56:35.769Z,67.80
2018-06-05T05:59:06.605Z,68.10
2018-06-05T06:01:37.404Z,69.00
2018-06-05T06:04:09.063Z,68.70
2018-06-05T06:06:39.785Z,69.80
2018-06-05T06:09:10.888Z,71.40
2018-06-05T06:11:41.612Z,71.30
2018-06-05T06:14:12.500Z,70.20
2018-06-05T06:16:43.231Z,70.70
2018-06-05T06:19:14.006Z,70.90
2018-06-05T06:21:44.635Z,69.70
2018-06-05T06:24:15.438Z,68.90
2018-06-05T06:26:46.276Z,68.40
2018-06-05T06:29:17.108Z,69.40
2018-06-05T06:31:47.740Z,70.30
2018-06-05T06:34:18.515Z,71.20
2018-06-05T06:36:49.249Z,72.60
2018-06-05T06:39:20.107Z,73.90
2018-06-05T06:41:50.829Z,73.40
2018-06-05T06:44:21.542Z,71.80
2018-06-05T06:46:52.288Z,72.20
2018-06-05T06:49:22.995Z,72.50
2018-06-05T06:51:53.739Z,72.70
2018-06-05T06:54:24.456Z,72.00
2018-06-05T06:56:55.265Z,71.40
2018-06-05T06:59:41.591Z,70.80
2018-06-05T07:02:12.316Z,70.90
2018-06-05T07:04:51.718Z,70.90
2018-06-05T07:07:23.627Z,69.70
2018-06-05T07:09:54.432Z,70.10
2018-06-05T07:12:25.284Z,70.50
2018-06-05T07:14:56.014Z,70.40
2018-06-05T07:19:57.103Z,69.60
2018-06-05T07:22:27.918Z,69.40
2018-06-05T07:25:09.048Z,69.80
2018-06-05T07:27:42.290Z,69.60
2018-06-05T07:30:13.036Z,69.40
2018-06-05T07:32:43.742Z,68.50
2018-06-05T07:38:26.913Z,68.70
2018-06-05T07:40:57.637Z,67.60
2018-06-05T07:43:28.383Z,68.90
2018-06-05T07:45:59.157Z,68.90
2018-06-05T07:48:29.840Z,68.90
2018-06-05T07:51:00.533Z,69.10
2018-06-05T07:53:31.186Z,68.90
2018-06-05T07:56:01.546Z,68.00
2018-06-05T07:58:32.291Z,67.00
2018-06-05T08:01:03.100Z,66.40
2018-06-05T08:03:33.827Z,67.40
2018-06-05T08:06:04.559Z,68.30
2018-06-05T08:08:35.304Z,67.60
2018-06-05T08:11:09.979Z,68.20
2018-06-05T08:13:40.711Z,67.60
2018-06-05T08:16:11.391Z,67.10
2018-06-05T08:18:42.020Z,66.60
2018-06-05T08:21:12.819Z,66.60
2018-06-05T08:23:43.628Z,66.90
2018-06-05T08:26:14.428Z,64.40
2018-06-05T08:28:45.225Z,63.90
2018-06-05T08:31:33.402Z,63.70
2018-06-05T08:34:04.080Z,63.50
2018-06-05T08:36:34.917Z,63.60
2018-06-05T08:39:08.023Z,62.70
2018-06-05T08:41:38.831Z,63.50
2018-06-05T08:44:09.582Z,63.30
2018-06-05T08:46:40.317Z,62.40
2018-06-05T08:49:11.107Z,60.00
2018-06-05T08:51:41.739Z,61.30
2018-06-05T08:54:12.610Z,61.00
2018-06-05T08:56:43.317Z,58.60
2018-06-05T08:59:13.988Z,58.40
2018-06-05T09:01:44.702Z,57.00
2018-06-05T09:04:15.415Z,54.90
2018-06-05T09:06:46.096Z,54.90
2018-06-05T09:09:16.754Z,55.10
2018-06-05T09:11:47.419Z,55.40
2018-06-05T09:14:18.186Z,56.20
2018-06-05T09:16:48.795Z,55.10
2018-06-05T09:19:19.527Z,55.00
2018-06-05T09:21:50.249Z,52.90
2018-06-05T09:24:20.962Z,51.90
2018-06-05T09:26:51.623Z,52.90
2018-06-05T09:29:22.355Z,52.00
2018-06-05T09:31:53.295Z,51.80
2018-06-05T09:34:24.074Z,52.30
2018-06-05T09:36:54.693Z,49.60
2018-06-05T09:39:25.455Z,49.60
2018-06-05T09:41:56.290Z,49.90
2018-06-05T09:44:27.090Z,50.70
2018-06-05T09:46:57.754Z,50.00
2018-06-05T09:49:32.943Z,51.00
2018-06-05T09:52:03.641Z,51.40
2018-06-05T09:54:34.334Z,49.30
2018-06-05T09:57:05.104Z,50.00
2018-06-05T09:59:35.844Z,49.30
2018-06-05T10:02:06.632Z,48.50
2018-06-05T10:04:37.328Z,48.00
2018-06-05T10:07:08.165Z,47.30
2018-06-05T10:09:38.816Z,47.60
2018-06-05T10:12:29.490Z,47.80
2018-06-05T10:15:00.243Z,47.70
2018-06-05T10:17:31.064Z,48.80
2018-06-05T10:20:01.803Z,49.10
2018-06-05T10:22:32.429Z,47.40
2018-06-05T10:25:03.244Z,46.40
2018-06-05T10:27:34.029Z,46.20
2018-06-05T10:30:04.939Z,46.60
2018-06-05T10:32:35.647Z,45.00
2018-06-05T10:35:06.333Z,45.30
2018-06-05T10:37:36.960Z,45.20
2018-06-05T10:40:07.696Z,45.90
2018-06-05T10:42:38.315Z,45.70
2018-06-05T10:45:09.138Z,44.70
2018-06-05T10:47:39.986Z,44.30
2018-06-05T10:50:10.711Z,44.40
2018-06-05T10:52:41.433Z,44.20
2018-06-05T10:55:12.187Z,44.30
2018-06-05T10:57:42.905Z,43.80
2018-06-05T11:00:13.722Z,43.90
2018-06-05T11:02:44.487Z,44.40
2018-06-05T11:05:15.222Z,43.50
2018-06-05T11:07:45.943Z,43.50
2018-06-05T11:10:16.668Z,43.30
2018-06-05T11:12:47.382Z,42.30
2018-06-05T11:15:18.064Z,42.00
2018-06-05T11:18:00.310Z,43.10
2018-06-05T11:20:31.069Z,43.20
2018-06-05T11:23:01.943Z,42.50
2018-06-05T11:25:32.740Z,43.00
2018-06-05T11:28:03.482Z,43.90
2018-06-05T11:30:34.225Z,41.80
2018-06-05T11:33:04.945Z,43.40
2018-06-05T11:35:35.797Z,43.70
2018-06-05T11:38:06.525Z,43.20
2018-06-05T11:40:38.273Z,43.90
2018-06-05T11:43:09.036Z,43.80
2018-06-05T11:45:39.764Z,44.40
2018-06-05T11:48:10.532Z,44.80
2018-06-05T11:50:41.315Z,43.80
2018-06-05T11:53:11.948Z,43.20
2018-06-05T11:55:42.685Z,42.20
2018-06-05T11:58:19.258Z,42.20
2018-06-05T12:00:50.088Z,41.70
2018-06-05T12:03:20.729Z,40.80
2018-06-05T12:05:51.606Z,41.50
2018-06-05T12:08:22.341Z,42.40
2018-06-05T12:10:53.126Z,41.90
2018-06-05T12:13:23.920Z,41.80
2018-06-05T12:15:54.604Z,41.80
2018-06-05T12:18:25.343Z,42.60
2018-06-05T12:20:55.967Z,42.90
2018-06-05T12:23:26.759Z,42.90
2018-06-05T12:25:57.564Z,43.00
2018-06-05T12:28:28.291Z,42.60
2018-06-05T12:30:59.170Z,42.10
2018-06-05T12:33:29.954Z,41.90
2018-06-05T12:36:00.658Z,42.20
2018-06-05T12:38:31.445Z,40.50
2018-06-05T12:41:02.198Z,39.90
2018-06-05T12:43:33.797Z,40.00
2018-06-05T12:46:04.631Z,41.10
2018-06-05T12:48:35.197Z,41.80
2018-06-05T12:51:06.005Z,42.40
2018-06-05T12:53:36.779Z,42.10
2018-06-05T12:56:07.506Z,42.10
2018-06-05T12:58:38.257Z,42.10
2018-06-05T13:01:09.032Z,42.60
2018-06-05T13:03:39.768Z,41.80
2018-06-05T13:06:10.532Z,40.90
2018-06-05T13:08:41.332Z,40.50
2018-06-05T13:11:12.110Z,39.90
2018-06-05T13:13:42.959Z,40.10
2018-06-05T13:16:13.759Z,41.00
2018-06-05T13:18:44.527Z,40.50
2018-06-05T13:21:15.162Z,40.30
2018-06-05T13:23:45.864Z,39.00
2018-06-05T13:26:16.633Z,38.00
2018-06-05T13:28:47.386Z,38.30
2018-06-05T13:31:18.147Z,38.30
2018-06-05T13:34:10.572Z,38.00
2018-06-05T13:36:41.373Z,39.00
2018-06-05T13:39:12.094Z,38.40
2018-06-05T13:41:42.803Z,37.10
2018-06-05T13:44:13.644Z,35.30
2018-06-05T13:46:44.311Z,36.90
2018-06-05T13:49:15.116Z,38.80
2018-06-05T13:51:45.972Z,38.10
2018-06-05T13:54:16.776Z,38.30
2018-06-05T13:56:46.954Z,39.00
2018-06-05T13:59:17.531Z,38.50
2018-06-05T14:01:48.365Z,38.20
2018-06-05T14:04:19.084Z,37.90
2018-06-05T14:06:50.868Z,34.90
2018-06-05T14:09:21.623Z,35.00
2018-06-05T14:11:52.272Z,35.00
2018-06-05T14:14:22.985Z,35.20
2018-06-05T14:16:53.776Z,35.20
2018-06-05T14:19:24.524Z,36.40
2018-06-05T14:21:56.187Z,36.60
2018-06-05T14:24:26.923Z,35.80
2018-06-05T14:26:57.627Z,36.70
2018-06-05T14:29:28.411Z,36.50
2018-06-05T14:31:59.147Z,37.00
2018-06-05T14:34:29.936Z,37.40
2018-06-05T14:37:00.677Z,36.30
2018-06-05T14:39:31.335Z,35.90
2018-06-05T14:42:02.148Z,37.20
2018-06-05T14:44:32.901Z,36.50
2018-06-05T14:47:07.207Z,35.70
2018-06-05T14:49:37.761Z,36.00
2018-06-05T14:52:08.875Z,35.70
2018-06-05T14:54:39.591Z,36.00
2018-06-05T14:57:10.300Z,35.30
2018-06-05T14:59:41.083Z,34.70
2018-06-05T15:02:11.823Z,34.30
2018-06-05T15:04:42.576Z,34.40
2018-06-05T15:07:13.307Z,35.10
2018-06-05T15:09:44.015Z,34.80
2018-06-05T15:12:14.795Z,34.30
2018-06-05T15:14:45.551Z,33.00
2018-06-05T15:17:16.364Z,33.20
2018-06-05T15:19:47.173Z,32.40
2018-06-05T15:22:17.900Z,33.90
2018-06-05T15:24:48.508Z,34.10
2018-06-05T15:27:19.191Z,34.00
2018-06-05T15:29:49.811Z,34.30
2018-06-05T15:32:20.693Z,34.90
2018-06-05T15:34:51.392Z,34.90
2018-06-05T15:37:22.141Z,34.60
2018-06-05T15:39:52.921Z,34.50
2018-06-05T15:42:23.613Z,33.70
2018-06-05T15:44:54.410Z,33.80
2018-06-05T15:47:25.102Z,33.30
2018-06-05T15:49:55.786Z,33.80
2018-06-05T15:52:26.582Z,37.10
2018-06-05T15:54:57.242Z,38.80
2018-06-05T15:57:28.068Z,39.80
2018-06-05T15:59:58.762Z,41.00
2018-06-05T16:02:48.378Z,40.90
2018-06-05T16:05:19.049Z,40.90
2018-06-05T16:07:49.839Z,41.40
2018-06-05T16:10:20.649Z,41.20
2018-06-05T16:12:51.512Z,41.60
2018-06-05T16:15:22.246Z,42.00
2018-06-05T16:17:52.987Z,42.70
2018-06-05T16:20:23.792Z,43.30
2018-06-05T16:22:54.396Z,45.80
2018-06-05T16:25:26.203Z,47.10
2018-06-05T16:27:56.912Z,47.90
2018-06-05T16:30:27.744Z,48.30
2018-06-05T16:35:28.640Z,48.60
2018-06-05T16:37:59.702Z,48.50
2018-06-05T16:40:30.368Z,48.00
2018-06-05T16:43:13.967Z,47.80
2018-06-05T16:45:44.764Z,46.80
2018-06-05T16:48:15.564Z,46.40
2018-06-05T16:50:46.339Z,45.30
2018-06-05T16:53:17.140Z,44.20
2018-06-05T16:55:48.097Z,43.60
2018-06-05T16:58:18.812Z,44.00
2018-06-05T17:00:49.625Z,44.00
2018-06-05T17:03:29.577Z,44.10
2018-06-05T17:06:00.315Z,43.70
2018-06-05T17:08:31.021Z,43.50
2018-06-05T17:11:01.766Z,43.30
2018-06-05T17:13:32.503Z,42.50
2018-06-05T17:16:03.327Z,42.50
2018-06-05T17:18:34.067Z,42.50
2018-06-05T17:21:04.817Z,42.10
2018-06-05T17:23:35.615Z,42.80
2018-06-05T17:26:06.443Z,42.50
2018-06-05T17:28:37.295Z,42.20
2018-06-05T17:31:07.899Z,41.90
2018-06-05T17:33:38.691Z,41.80
2018-06-05T17:36:09.431Z,42.30
2018-06-05T17:38:40.222Z,42.50
2018-06-05T17:41:10.896Z,42.80
2018-06-05T17:43:41.691Z,42.80
2018-06-05T17:46:12.567Z,43.00
2018-06-05T17:48:43.387Z,43.30
2018-06-05T17:51:14.185Z,43.30
2018-06-05T17:53:44.975Z,43.20
2018-06-05T17:56:15.698Z,42.90
2018-06-05T17:58:46.380Z,42.50
2018-06-05T18:01:17.152Z,42.60
2018-06-05T18:03:47.846Z,43.30
2018-06-05T18:06:18.827Z,44.30
2018-06-05T18:11:19.475Z,46.40
2018-06-05T18:13:50.276Z,46.50
2018-06-05T18:16:21.008Z,46.40
2018-06-05T18:18:51.735Z,46.20
2018-06-05T18:21:22.633Z,46.10
2018-06-05T18:23:53.363Z,46.70
2018-06-05T18:26:24.076Z,47.30
2018-06-05T18:28:54.918Z,47.70
2018-06-05T18:31:25.584Z,47.70
2018-06-05T18:33:56.315Z,48.40
2018-06-05T18:36:27.072Z,48.90
2018-06-05T18:38:57.799Z,49.50
2018-06-05T18:41:28.460Z,49.50
2018-06-05T18:43:59.256Z,50.50
2018-06-05T18:51:29.988Z,53.40
2018-06-05T18:54:00.747Z,54.10
2018-06-05T18:56:31.440Z,54.70
2018-06-05T18:59:02.253Z,55.70
2018-06-05T19:01:33.055Z,55.70
2018-06-05T19:04:03.738Z,55.80
2018-06-05T19:06:34.443Z,56.30
2018-06-05T19:09:07.390Z,56.80
2018-06-05T19:11:38.211Z,56.90
2018-06-05T19:14:09.047Z,57.10
2018-06-05T19:16:39.919Z,57.80
2018-06-05T19:19:11.490Z,58.20
2018-06-05T19:21:42.269Z,58.60
2018-06-05T19:24:12.884Z,58.80
2018-06-05T19:26:43.562Z,58.90
2018-06-05T19:29:14.294Z,59.20
2018-06-05T19:31:45.084Z,59.30
2018-06-05T19:34:15.822Z,59.60
2018-06-05T19:36:46.537Z,59.90
2018-06-05T19:39:17.279Z,60.20
2018-06-05T19:41:48.117Z,60.60
2018-06-05T19:44:18.741Z,61.00
2018-06-05T19:46:49.437Z,61.30
2018-06-05T19:49:20.226Z,61.70
2018-06-05T19:51:50.961Z,62.10
2018-06-05T19:54:21.700Z,62.70
2018-06-05T19:56:52.323Z,62.90
2018-06-05T19:59:23.040Z,63.40
2018-06-05T20:01:53.775Z,63.80
2018-06-05T20:04:24.599Z,64.20
2018-06-05T20:06:55.508Z,64.80
2018-06-05T20:09:26.240Z,65.40
2018-06-05T20:11:57.096Z,65.80
2018-06-05T20:14:27.884Z,66.40
2018-06-05T20:16:58.478Z,66.80
2018-06-05T20:19:29.252Z,67.40
2018-06-05T20:21:59.995Z,67.90
2018-06-05T20:24:30.737Z,68.40
2018-06-05T20:27:01.634Z,68.80
2018-06-05T20:29:32.458Z,69.50
2018-06-05T20:32:03.294Z,70.10
2018-06-05T20:34:45.023Z,70.70
2018-06-05T20:37:15.669Z,71.50
2018-06-05T20:39:46.421Z,71.90
2018-06-05T20:44:47.324Z,73.30
2018-06-05T20:47:18.110Z,74.10
2018-06-05T20:49:48.892Z,75.30
2018-06-05T20:52:29.756Z,75.40
2018-06-05T20:55:00.602Z,75.90
2018-06-05T20:57:36.695Z,77.00
2018-06-05T21:00:07.645Z,78.20
2018-06-05T21:02:38.372Z,79.60
2018-06-05T21:05:09.168Z,78.60
2018-06-05T21:07:40.001Z,80.50
2018-06-05T21:10:24.489Z,78.40
2018-06-05T21:16:05.500Z,79.40
2018-06-05T21:18:36.204Z,78.90
2018-06-05T21:21:07.079Z,76.90
2018-06-05T21:23:37.972Z,77.40
2018-06-05T21:26:08.695Z,77.90
2018-06-05T21:28:39.456Z,78.60
2018-06-05T21:31:10.152Z,80.20
2018-06-05T21:33:41.008Z,80.60
2018-06-05T21:36:11.657Z,78.30
2018-06-05T21:38:42.547Z,76.90
2018-06-05T21:41:13.306Z,75.90
2018-06-05T21:43:44.241Z,76.70
2018-06-05T21:46:14.960Z,78.30
2018-06-05T21:48:51.187Z,79.90
2018-06-05T21:51:22.793Z,81.90
2018-06-05T21:53:53.949Z,83.90
2018-06-05T21:56:26.689Z,85.20
2018-06-05T22:01:27.500Z,87.70
2018-06-05T22:03:58.223Z,88.50
2018-06-05T22:06:28.995Z,89.40
2018-06-05T22:08:59.700Z,90.10
2018-06-05T22:11:30.413Z,90.70
2018-06-05T22:16:46.507Z,91.50
2018-06-05T22:19:17.263Z,92.30
2018-06-05T22:21:48.003Z,92.90
2018-06-05T22:24:18.723Z,93.80
2018-06-05T22:26:49.484Z,94.60
2018-06-05T22:29:20.183Z,95.60
2018-06-05T22:31:50.884Z,96.40
2018-06-05T22:34:21.646Z,96.70
2018-06-05T22:36:52.331Z,97.70
2018-06-05T22:39:23.119Z,97.90
2018-06-05T22:41:53.789Z,98.20
2018-06-05T22:44:24.586Z,99.00
2018-06-05T22:46:55.318Z,99.50
2018-06-05T22:49:26.152Z,99.90
2018-06-05T22:51:56.863Z,99.90
2018-06-05T22:57:46.535Z,99.90
2018-06-05T23:00:30.147Z,99.90
2018-06-05T23:03:00.871Z,99.90
2018-06-05T23:05:31.808Z,99.90
2018-06-05T23:08:02.462Z,99.90
2018-06-05T23:10:33.210Z,99.90
2018-06-05T23:13:07.764Z,99.90
2018-06-05T23:15:38.575Z,99.90
2018-06-05T23:20:39.424Z,99.90
2018-06-05T23:23:10.271Z,99.90
2018-06-05T23:28:10.893Z,99.90
2018-06-05T23:30:41.691Z,99.90
2018-06-05T23:33:12.373Z,99.90
2018-06-05T23:35:43.287Z,99.90
2018-06-05T23:38:14.253Z,99.90
2018-06-05T23:40:45.036Z,99.90
2018-06-05T23:43:15.709Z,99.90
2018-06-05T23:45:46.530Z,99.90
2018-06-05T23:48:33.834Z,99.90
2018-06-05T23:51:04.530Z,99.90
2018-06-05T23:53:35.359Z,99.90
2018-06-05T23:56:06.251Z,99.90
2018-06-05T23:58:37.257Z,99.90
